sensor_id;sensor_type;location;lat;lon;timestamp;P1;durP1;ratioP1;P2;durP2;ratioP2
64174;SDS011;50469;50.438;-119.202;2022-09-01T00:00:16;18.75;;;6.05;;
64174;SDS011;50469;50.438;-119.202;2022-09-01T00:02:44;20.17;;;6.45;;
64174;SDS011;50469;50.438;-119.202;2022-09-01T00:05:12;18.95;;;6.18;;
64174;SDS011;50469;50.438;-119.202;2022-09-01T00:07:40;40.08;;;6.10;;
64174;SDS011;50469;50.438;-119.202;2022-09-01T00:10:08;18.40;;;6.32;;
64174;SDS011;50469;50.438;-119.202;2022-09-01T00:12:37;17.17;;;5.60;;
64174;SDS011;50469;50.438;-119.202;2022-09-01T00:15:09;27.10;;;5.85;;
64174;SDS011;50469;50.438;-119.202;2022-09-01T00:17:40;23.77;;;5.82;;
64174;SDS011;50469;50.438;-119.202;2022-09-01T00:20:08;27.25;;;6.85;;
64174;SDS011;50469;50.438;-119.202;2022-09-01T00:22:37;26.90;;;7.22;;
64174;SDS011;50469;50.438;-119.202;2022-09-01T00:25:05;20.42;;;7.07;;
64174;SDS011;50469;50.438;-119.202;2022-09-01T00:27:36;24.67;;;6.78;;
64174;SDS011;50469;50.438;-119.202;2022-09-01T00:30:07;40.90;;;7.03;;
64174;SDS011;50469;50.438;-119.202;2022-09-01T00:32:35;26.58;;;7.13;;
64174;SDS011;50469;50.438;-119.202;2022-09-01T00:35:04;26.30;;;6.90;;
64174;SDS011;50469;50.438;-119.202;2022-09-01T00:37:32;45.03;;;7.70;;
64174;SDS011;50469;50.438;-119.202;2022-09-01T00:40:00;23.73;;;6.55;;
64174;SDS011;50469;50.438;-119.202;2022-09-01T00:42:32;27.77;;;7.45;;
64174;SDS011;50469;50.438;-119.202;2022-09-01T00:45:01;34.67;;;6.75;;
64174;SDS011;50469;50.438;-119.202;2022-09-01T00:47:29;25.08;;;6.60;;
64174;SDS011;50469;50.438;-119.202;2022-09-01T00:49:57;20.15;;;6.93;;
64174;SDS011;50469;50.438;-119.202;2022-09-01T00:52:33;33.55;;;7.53;;
64174;SDS011;50469;50.438;-119.202;2022-09-01T00:55:09;30.30;;;6.93;;
64174;SDS011;50469;50.438;-119.202;2022-09-01T00:57:44;33.35;;;6.38;;
64174;SDS011;50469;50.438;-119.202;2022-09-01T01:00:20;18.02;;;6.78;;
64174;SDS011;50469;50.438;-119.202;2022-09-01T01:02:51;24.60;;;6.53;;
64174;SDS011;50469;50.438;-119.202;2022-09-01T01:05:23;21.92;;;5.45;;
64174;SDS011;50469;50.438;-119.202;2022-09-01T01:07:53;30.95;;;6.97;;
64174;SDS011;50469;50.438;-119.202;2022-09-01T01:10:22;26.52;;;7.43;;
64174;SDS011;50469;50.438;-119.202;2022-09-01T01:12:51;22.38;;;6.72;;
64174;SDS011;50469;50.438;-119.202;2022-09-01T01:15:19;22.65;;;6.43;;
64174;SDS011;50469;50.438;-119.202;2022-09-01T01:17:47;17.80;;;5.95;;
64174;SDS011;50469;50.438;-119.202;2022-09-01T01:20:15;18.50;;;6.03;;
64174;SDS011;50469;50.438;-119.202;2022-09-01T01:26:08;24.33;;;7.03;;
64174;SDS011;50469;50.438;-119.202;2022-09-01T01:28:38;13.93;;;6.38;;
64174;SDS011;50469;50.438;-119.202;2022-09-01T01:31:14;9.32;;;6.00;;
64174;SDS011;50469;50.438;-119.202;2022-09-01T01:33:47;13.68;;;5.88;;
64174;SDS011;50469;50.438;-119.202;2022-09-01T01:36:19;28.90;;;6.32;;
64174;SDS011;50469;50.438;-119.202;2022-09-01T01:38:49;27.70;;;5.90;;
64174;SDS011;50469;50.438;-119.202;2022-09-01T01:41:20;16.02;;;6.47;;
64174;SDS011;50469;50.438;-119.202;2022-09-01T01:43:48;18.88;;;6.57;;
64174;SDS011;50469;50.438;-119.202;2022-09-01T01:46:19;20.40;;;6.15;;
64174;SDS011;50469;50.438;-119.202;2022-09-01T01:48:48;15.30;;;5.97;;
64174;SDS011;50469;50.438;-119.202;2022-09-01T01:51:17;17.80;;;5.88;;
64174;SDS011;50469;50.438;-119.202;2022-09-01T01:53:49;17.98;;;6.20;;
64174;SDS011;50469;50.438;-119.202;2022-09-01T01:56:20;23.65;;;7.05;;
64174;SDS011;50469;50.438;-119.202;2022-09-01T01:58:52;18.50;;;6.00;;
64174;SDS011;50469;50.438;-119.202;2022-09-01T02:01:22;26.33;;;6.78;;
64174;SDS011;50469;50.438;-119.202;2022-09-01T02:03:55;16.17;;;6.27;;
64174;SDS011;50469;50.438;-119.202;2022-09-01T02:06:26;14.00;;;5.85;;
64174;SDS011;50469;50.438;-119.202;2022-09-01T02:08:55;16.92;;;6.50;;
64174;SDS011;50469;50.438;-119.202;2022-09-01T02:11:24;21.33;;;6.45;;
64174;SDS011;50469;50.438;-119.202;2022-09-01T02:13:53;18.45;;;5.72;;
64174;SDS011;50469;50.438;-119.202;2022-09-01T02:16:22;23.20;;;6.60;;
64174;SDS011;50469;50.438;-119.202;2022-09-01T02:18:52;19.70;;;6.63;;
64174;SDS011;50469;50.438;-119.202;2022-09-01T02:21:25;32.65;;;7.50;;
64174;SDS011;50469;50.438;-119.202;2022-09-01T02:23:59;25.73;;;6.78;;
64174;SDS011;50469;50.438;-119.202;2022-09-01T02:26:34;20.20;;;6.80;;
64174;SDS011;50469;50.438;-119.202;2022-09-01T02:29:08;29.95;;;6.93;;
64174;SDS011;50469;50.438;-119.202;2022-09-01T02:31:38;30.13;;;8.25;;
64174;SDS011;50469;50.438;-119.202;2022-09-01T02:34:07;21.85;;;6.88;;
64174;SDS011;50469;50.438;-119.202;2022-09-01T02:36:36;20.35;;;8.10;;
64174;SDS011;50469;50.438;-119.202;2022-09-01T02:39:04;26.40;;;7.80;;
64174;SDS011;50469;50.438;-119.202;2022-09-01T02:41:33;23.90;;;7.65;;
64174;SDS011;50469;50.438;-119.202;2022-09-01T02:44:04;25.75;;;7.40;;
64174;SDS011;50469;50.438;-119.202;2022-09-01T02:46:32;24.90;;;7.90;;
64174;SDS011;50469;50.438;-119.202;2022-09-01T02:49:00;25.23;;;7.55;;
64174;SDS011;50469;50.438;-119.202;2022-09-01T02:51:31;22.17;;;7.00;;
64174;SDS011;50469;50.438;-119.202;2022-09-01T02:53:59;28.00;;;6.97;;
64174;SDS011;50469;50.438;-119.202;2022-09-01T02:56:27;47.45;;;7.47;;
64174;SDS011;50469;50.438;-119.202;2022-09-01T02:58:57;27.63;;;6.95;;
64174;SDS011;50469;50.438;-119.202;2022-09-01T03:01:26;20.20;;;7.00;;
64174;SDS011;50469;50.438;-119.202;2022-09-01T03:03:59;28.08;;;6.97;;
64174;SDS011;50469;50.438;-119.202;2022-09-01T03:06:31;29.67;;;7.22;;
64174;SDS011;50469;50.438;-119.202;2022-09-01T03:09:00;32.97;;;7.82;;
64174;SDS011;50469;50.438;-119.202;2022-09-01T03:11:32;17.42;;;6.20;;
64174;SDS011;50469;50.438;-119.202;2022-09-01T03:14:02;20.20;;;7.15;;
64174;SDS011;50469;50.438;-119.202;2022-09-01T03:16:34;23.33;;;7.70;;
64174;SDS011;50469;50.438;-119.202;2022-09-01T03:19:04;32.38;;;7.60;;
64174;SDS011;50469;50.438;-119.202;2022-09-01T03:21:36;17.85;;;7.97;;
64174;SDS011;50469;50.438;-119.202;2022-09-01T03:24:06;25.92;;;8.10;;
64174;SDS011;50469;50.438;-119.202;2022-09-01T03:26:38;22.10;;;6.50;;
64174;SDS011;50469;50.438;-119.202;2022-09-01T03:29:09;15.70;;;6.95;;
64174;SDS011;50469;50.438;-119.202;2022-09-01T03:31:37;23.65;;;7.72;;
64174;SDS011;50469;50.438;-119.202;2022-09-01T03:34:05;24.10;;;7.47;;
64174;SDS011;50469;50.438;-119.202;2022-09-01T03:36:33;25.38;;;6.90;;
64174;SDS011;50469;50.438;-119.202;2022-09-01T03:39:01;14.88;;;7.78;;
64174;SDS011;50469;50.438;-119.202;2022-09-01T03:41:32;22.30;;;7.75;;
64174;SDS011;50469;50.438;-119.202;2022-09-01T03:44:03;22.63;;;8.27;;
64174;SDS011;50469;50.438;-119.202;2022-09-01T03:46:31;32.80;;;8.20;;
64174;SDS011;50469;50.438;-119.202;2022-09-01T03:49:02;32.88;;;7.88;;
64174;SDS011;50469;50.438;-119.202;2022-09-01T03:51:31;18.25;;;6.53;;
64174;SDS011;50469;50.438;-119.202;2022-09-01T03:53:59;27.92;;;6.15;;
64174;SDS011;50469;50.438;-119.202;2022-09-01T03:56:30;18.25;;;5.68;;
64174;SDS011;50469;50.438;-119.202;2022-09-01T03:59:01;17.25;;;5.03;;
64174;SDS011;50469;50.438;-119.202;2022-09-01T04:01:33;23.08;;;6.43;;
64174;SDS011;50469;50.438;-119.202;2022-09-01T04:04:01;24.58;;;6.75;;
64174;SDS011;50469;50.438;-119.202;2022-09-01T04:06:30;20.05;;;6.18;;
64174;SDS011;50469;50.438;-119.202;2022-09-01T04:08:58;12.30;;;5.50;;
64174;SDS011;50469;50.438;-119.202;2022-09-01T04:11:29;50.40;;;7.30;;
64174;SDS011;50469;50.438;-119.202;2022-09-01T04:13:57;26.50;;;7.03;;
64174;SDS011;50469;50.438;-119.202;2022-09-01T04:16:29;27.10;;;8.70;;
64174;SDS011;50469;50.438;-119.202;2022-09-01T04:18:59;34.10;;;7.53;;
64174;SDS011;50469;50.438;-119.202;2022-09-01T04:21:27;14.27;;;7.13;;
64174;SDS011;50469;50.438;-119.202;2022-09-01T04:23:56;18.02;;;7.20;;
64174;SDS011;50469;50.438;-119.202;2022-09-01T04:26:24;18.52;;;6.38;;
64174;SDS011;50469;50.438;-119.202;2022-09-01T04:28:54;17.05;;;6.57;;
64174;SDS011;50469;50.438;-119.202;2022-09-01T04:31:27;19.27;;;5.65;;
64174;SDS011;50469;50.438;-119.202;2022-09-01T04:33:56;17.58;;;5.25;;
64174;SDS011;50469;50.438;-119.202;2022-09-01T04:36:27;14.70;;;5.47;;
64174;SDS011;50469;50.438;-119.202;2022-09-01T04:38:57;13.85;;;6.82;;
64174;SDS011;50469;50.438;-119.202;2022-09-01T04:41:30;11.98;;;5.15;;
64174;SDS011;50469;50.438;-119.202;2022-09-01T04:43:59;24.77;;;5.13;;
64174;SDS011;50469;50.438;-119.202;2022-09-01T04:46:33;13.25;;;5.40;;
64174;SDS011;50469;50.438;-119.202;2022-09-01T04:49:03;12.75;;;5.28;;
64174;SDS011;50469;50.438;-119.202;2022-09-01T04:51:39;10.50;;;5.32;;
64174;SDS011;50469;50.438;-119.202;2022-09-01T04:54:08;18.73;;;5.93;;
64174;SDS011;50469;50.438;-119.202;2022-09-01T04:56:40;11.27;;;5.55;;
64174;SDS011;50469;50.438;-119.202;2022-09-01T04:59:10;13.13;;;5.95;;
64174;SDS011;50469;50.438;-119.202;2022-09-01T05:01:39;12.98;;;5.18;;
64174;SDS011;50469;50.438;-119.202;2022-09-01T05:04:09;8.35;;;5.18;;
64174;SDS011;50469;50.438;-119.202;2022-09-01T05:06:42;7.53;;;5.43;;
64174;SDS011;50469;50.438;-119.202;2022-09-01T05:09:12;10.45;;;5.28;;
64174;SDS011;50469;50.438;-119.202;2022-09-01T05:11:42;12.07;;;4.75;;
64174;SDS011;50469;50.438;-119.202;2022-09-01T05:14:11;12.10;;;5.88;;
64174;SDS011;50469;50.438;-119.202;2022-09-01T05:16:39;8.45;;;5.65;;
64174;SDS011;50469;50.438;-119.202;2022-09-01T05:19:08;11.52;;;5.68;;
64174;SDS011;50469;50.438;-119.202;2022-09-01T05:21:36;17.55;;;6.45;;
64174;SDS011;50469;50.438;-119.202;2022-09-01T05:24:05;11.63;;;6.03;;
64174;SDS011;50469;50.438;-119.202;2022-09-01T05:26:33;9.18;;;6.28;;
64174;SDS011;50469;50.438;-119.202;2022-09-01T05:29:02;19.85;;;5.72;;
64174;SDS011;50469;50.438;-119.202;2022-09-01T05:31:32;21.77;;;6.60;;
64174;SDS011;50469;50.438;-119.202;2022-09-01T05:34:00;24.95;;;7.00;;
64174;SDS011;50469;50.438;-119.202;2022-09-01T05:36:30;15.50;;;5.82;;
64174;SDS011;50469;50.438;-119.202;2022-09-01T05:39:02;14.05;;;6.40;;
64174;SDS011;50469;50.438;-119.202;2022-09-01T05:41:31;18.58;;;6.55;;
64174;SDS011;50469;50.438;-119.202;2022-09-01T05:44:03;16.13;;;6.65;;
64174;SDS011;50469;50.438;-119.202;2022-09-01T05:46:35;20.65;;;6.15;;
64174;SDS011;50469;50.438;-119.202;2022-09-01T05:49:06;18.00;;;6.55;;
64174;SDS011;50469;50.438;-119.202;2022-09-01T05:51:38;10.88;;;6.63;;
64174;SDS011;50469;50.438;-119.202;2022-09-01T05:54:12;20.85;;;6.97;;
64174;SDS011;50469;50.438;-119.202;2022-09-01T05:56:41;23.70;;;6.60;;
64174;SDS011;50469;50.438;-119.202;2022-09-01T05:59:11;18.58;;;5.93;;
64174;SDS011;50469;50.438;-119.202;2022-09-01T06:01:49;22.20;;;7.15;;
64174;SDS011;50469;50.438;-119.202;2022-09-01T06:04:17;26.55;;;6.75;;
64174;SDS011;50469;50.438;-119.202;2022-09-01T06:06:46;23.70;;;8.20;;
64174;SDS011;50469;50.438;-119.202;2022-09-01T06:09:36;29.65;;;7.75;;
64174;SDS011;50469;50.438;-119.202;2022-09-01T06:12:09;22.20;;;8.77;;
64174;SDS011;50469;50.438;-119.202;2022-09-01T06:14:40;15.57;;;6.35;;
64174;SDS011;50469;50.438;-119.202;2022-09-01T06:17:08;24.30;;;6.80;;
64174;SDS011;50469;50.438;-119.202;2022-09-01T06:19:36;12.93;;;6.97;;
64174;SDS011;50469;50.438;-119.202;2022-09-01T06:22:05;10.00;;;6.57;;
64174;SDS011;50469;50.438;-119.202;2022-09-01T06:24:36;13.20;;;6.80;;
64174;SDS011;50469;50.438;-119.202;2022-09-01T06:27:08;15.38;;;7.35;;
64174;SDS011;50469;50.438;-119.202;2022-09-01T06:29:37;16.42;;;6.80;;
64174;SDS011;50469;50.438;-119.202;2022-09-01T06:32:06;18.55;;;7.28;;
64174;SDS011;50469;50.438;-119.202;2022-09-01T06:34:35;19.27;;;7.15;;
64174;SDS011;50469;50.438;-119.202;2022-09-01T06:37:06;21.45;;;8.07;;
64174;SDS011;50469;50.438;-119.202;2022-09-01T06:39:38;21.02;;;8.05;;
64174;SDS011;50469;50.438;-119.202;2022-09-01T06:42:09;23.42;;;7.93;;
64174;SDS011;50469;50.438;-119.202;2022-09-01T06:44:40;33.05;;;8.32;;
64174;SDS011;50469;50.438;-119.202;2022-09-01T06:47:08;24.35;;;9.45;;
64174;SDS011;50469;50.438;-119.202;2022-09-01T06:49:36;26.50;;;8.88;;
64174;SDS011;50469;50.438;-119.202;2022-09-01T06:52:07;26.70;;;8.48;;
64174;SDS011;50469;50.438;-119.202;2022-09-01T06:54:35;13.40;;;8.38;;
64174;SDS011;50469;50.438;-119.202;2022-09-01T06:57:06;28.70;;;9.18;;
64174;SDS011;50469;50.438;-119.202;2022-09-01T06:59:54;29.42;;;8.48;;
64174;SDS011;50469;50.438;-119.202;2022-09-01T07:02:22;28.20;;;7.90;;
64174;SDS011;50469;50.438;-119.202;2022-09-01T07:04:52;23.65;;;7.53;;
64174;SDS011;50469;50.438;-119.202;2022-09-01T07:07:24;20.65;;;7.95;;
64174;SDS011;50469;50.438;-119.202;2022-09-01T07:10:12;29.20;;;8.50;;
64174;SDS011;50469;50.438;-119.202;2022-09-01T07:12:49;20.55;;;8.27;;
64174;SDS011;50469;50.438;-119.202;2022-09-01T07:15:37;24.05;;;8.45;;
64174;SDS011;50469;50.438;-119.202;2022-09-01T07:18:27;25.27;;;8.25;;
64174;SDS011;50469;50.438;-119.202;2022-09-01T07:20:55;19.38;;;8.23;;
64174;SDS011;50469;50.438;-119.202;2022-09-01T07:23:46;23.33;;;8.35;;
64174;SDS011;50469;50.438;-119.202;2022-09-01T07:26:37;23.90;;;7.40;;
64174;SDS011;50469;50.438;-119.202;2022-09-01T07:29:13;24.98;;;9.15;;
64174;SDS011;50469;50.438;-119.202;2022-09-01T07:31:44;21.17;;;8.45;;
64174;SDS011;50469;50.438;-119.202;2022-09-01T07:34:18;22.52;;;8.80;;
64174;SDS011;50469;50.438;-119.202;2022-09-01T07:37:06;18.48;;;8.63;;
64174;SDS011;50469;50.438;-119.202;2022-09-01T07:39:54;36.50;;;9.85;;
64174;SDS011;50469;50.438;-119.202;2022-09-01T07:42:22;30.08;;;8.50;;
64174;SDS011;50469;50.438;-119.202;2022-09-01T07:45:10;23.08;;;8.50;;
64174;SDS011;50469;50.438;-119.202;2022-09-01T07:47:55;38.17;;;9.68;;
64174;SDS011;50469;50.438;-119.202;2022-09-01T07:50:28;29.10;;;8.40;;
64174;SDS011;50469;50.438;-119.202;2022-09-01T07:53:17;20.08;;;8.20;;
64174;SDS011;50469;50.438;-119.202;2022-09-01T07:58:19;26.73;;;8.18;;
64174;SDS011;50469;50.438;-119.202;2022-09-01T08:00:51;21.33;;;8.68;;
64174;SDS011;50469;50.438;-119.202;2022-09-01T08:03:21;19.73;;;8.63;;
64174;SDS011;50469;50.438;-119.202;2022-09-01T08:05:50;17.15;;;8.73;;
64174;SDS011;50469;50.438;-119.202;2022-09-01T08:08:19;25.75;;;8.68;;
64174;SDS011;50469;50.438;-119.202;2022-09-01T08:10:54;36.33;;;9.07;;
64174;SDS011;50469;50.438;-119.202;2022-09-01T08:13:30;29.40;;;9.68;;
64174;SDS011;50469;50.438;-119.202;2022-09-01T08:16:08;27.83;;;10.20;;
64174;SDS011;50469;50.438;-119.202;2022-09-01T08:18:44;16.95;;;8.63;;
64174;SDS011;50469;50.438;-119.202;2022-09-01T08:21:16;23.17;;;9.00;;
64174;SDS011;50469;50.438;-119.202;2022-09-01T08:23:45;17.95;;;8.60;;
64174;SDS011;50469;50.438;-119.202;2022-09-01T08:26:16;25.10;;;8.43;;
64174;SDS011;50469;50.438;-119.202;2022-09-01T08:28:46;22.67;;;9.80;;
64174;SDS011;50469;50.438;-119.202;2022-09-01T08:31:23;19.13;;;9.70;;
64174;SDS011;50469;50.438;-119.202;2022-09-01T08:33:58;29.48;;;9.50;;
64174;SDS011;50469;50.438;-119.202;2022-09-01T08:36:27;29.98;;;9.23;;
64174;SDS011;50469;50.438;-119.202;2022-09-01T08:38:55;27.48;;;9.40;;
64174;SDS011;50469;50.438;-119.202;2022-09-01T08:41:31;26.33;;;9.57;;
64174;SDS011;50469;50.438;-119.202;2022-09-01T08:44:18;24.13;;;8.95;;
64174;SDS011;50469;50.438;-119.202;2022-09-01T08:46:47;28.70;;;8.43;;
64174;SDS011;50469;50.438;-119.202;2022-09-01T08:49:19;16.08;;;8.85;;
64174;SDS011;50469;50.438;-119.202;2022-09-01T08:51:57;23.02;;;8.65;;
64174;SDS011;50469;50.438;-119.202;2022-09-01T08:54:38;18.15;;;8.32;;
64174;SDS011;50469;50.438;-119.202;2022-09-01T08:57:15;23.38;;;9.85;;
64174;SDS011;50469;50.438;-119.202;2022-09-01T08:59:50;15.75;;;8.38;;
64174;SDS011;50469;50.438;-119.202;2022-09-01T09:05:07;29.20;;;9.27;;
64174;SDS011;50469;50.438;-119.202;2022-09-01T09:11:06;15.95;;;9.32;;
64174;SDS011;50469;50.438;-119.202;2022-09-01T09:17:00;16.67;;;9.77;;
64174;SDS011;50469;50.438;-119.202;2022-09-01T09:22:03;26.20;;;11.05;;
64174;SDS011;50469;50.438;-119.202;2022-09-01T09:24:35;18.42;;;10.48;;
64174;SDS011;50469;50.438;-119.202;2022-09-01T09:27:23;23.65;;;10.20;;
64174;SDS011;50469;50.438;-119.202;2022-09-01T09:29:58;23.33;;;9.57;;
64174;SDS011;50469;50.438;-119.202;2022-09-01T09:32:51;21.67;;;10.60;;
64174;SDS011;50469;50.438;-119.202;2022-09-01T09:35:45;30.08;;;10.57;;
64174;SDS011;50469;50.438;-119.202;2022-09-01T09:46:40;16.90;;;9.48;;
64174;SDS011;50469;50.438;-119.202;2022-09-01T09:57:37;25.75;;;10.60;;
64174;SDS011;50469;50.438;-119.202;2022-09-01T10:00:23;31.42;;;10.45;;
64174;SDS011;50469;50.438;-119.202;2022-09-01T10:02:55;24.15;;;10.27;;
64174;SDS011;50469;50.438;-119.202;2022-09-01T10:08:10;26.02;;;9.68;;
64174;SDS011;50469;50.438;-119.202;2022-09-01T10:11:01;22.92;;;9.77;;
64174;SDS011;50469;50.438;-119.202;2022-09-01T10:13:33;31.67;;;10.13;;
64174;SDS011;50469;50.438;-119.202;2022-09-01T10:16:03;32.05;;;11.07;;
64174;SDS011;50469;50.438;-119.202;2022-09-01T10:18:38;25.25;;;10.20;;
64174;SDS011;50469;50.438;-119.202;2022-09-01T10:21:15;22.95;;;11.50;;
64174;SDS011;50469;50.438;-119.202;2022-09-01T10:23:47;26.85;;;11.27;;
64174;SDS011;50469;50.438;-119.202;2022-09-01T10:26:33;26.55;;;11.32;;
64174;SDS011;50469;50.438;-119.202;2022-09-01T10:29:16;20.85;;;10.88;;
64174;SDS011;50469;50.438;-119.202;2022-09-01T10:31:47;35.40;;;11.50;;
64174;SDS011;50469;50.438;-119.202;2022-09-01T10:34:35;19.35;;;11.82;;
64174;SDS011;50469;50.438;-119.202;2022-09-01T10:37:07;23.77;;;10.18;;
64174;SDS011;50469;50.438;-119.202;2022-09-01T10:42:36;17.90;;;10.80;;
64174;SDS011;50469;50.438;-119.202;2022-09-01T10:47:46;43.55;;;13.40;;
64174;SDS011;50469;50.438;-119.202;2022-09-01T10:50:26;22.27;;;11.93;;
64174;SDS011;50469;50.438;-119.202;2022-09-01T10:53:02;27.67;;;12.27;;
64174;SDS011;50469;50.438;-119.202;2022-09-01T10:55:37;28.55;;;12.30;;
64174;SDS011;50469;50.438;-119.202;2022-09-01T10:58:32;37.38;;;12.60;;
64174;SDS011;50469;50.438;-119.202;2022-09-01T11:15:36;34.20;;;14.70;;
64174;SDS011;50469;50.438;-119.202;2022-09-01T11:18:09;22.80;;;14.63;;
64174;SDS011;50469;50.438;-119.202;2022-09-01T11:20:44;31.40;;;14.43;;
64174;SDS011;50469;50.438;-119.202;2022-09-01T11:23:27;30.58;;;13.73;;
64174;SDS011;50469;50.438;-119.202;2022-09-01T11:26:43;35.90;;;11.57;;
64174;SDS011;50469;50.438;-119.202;2022-09-01T11:29:00;26.02;;;11.57;;
64174;SDS011;50469;50.438;-119.202;2022-09-01T11:31:39;29.27;;;11.57;;
64174;SDS011;50469;50.438;-119.202;2022-09-01T11:34:16;23.70;;;11.02;;
64174;SDS011;50469;50.438;-119.202;2022-09-01T11:36:50;22.60;;;12.10;;
64174;SDS011;50469;50.438;-119.202;2022-09-01T11:39:39;31.58;;;11.93;;
64174;SDS011;50469;50.438;-119.202;2022-09-01T11:47:42;19.83;;;10.80;;
64174;SDS011;50469;50.438;-119.202;2022-09-01T11:53:00;28.20;;;12.18;;
64174;SDS011;50469;50.438;-119.202;2022-09-01T11:55:36;20.42;;;10.60;;
64174;SDS011;50469;50.438;-119.202;2022-09-01T11:58:29;20.98;;;11.90;;
64174;SDS011;50469;50.438;-119.202;2022-09-01T12:03:47;22.17;;;10.85;;
64174;SDS011;50469;50.438;-119.202;2022-09-01T12:06:22;23.33;;;11.15;;
64174;SDS011;50469;50.438;-119.202;2022-09-01T12:08:56;20.67;;;10.80;;
64174;SDS011;50469;50.438;-119.202;2022-09-01T12:11:34;24.75;;;11.60;;
64174;SDS011;50469;50.438;-119.202;2022-09-01T12:16:38;22.67;;;11.52;;
64174;SDS011;50469;50.438;-119.202;2022-09-01T12:19:07;25.40;;;11.02;;
64174;SDS011;50469;50.438;-119.202;2022-09-01T12:21:36;26.23;;;11.65;;
64174;SDS011;50469;50.438;-119.202;2022-09-01T12:24:17;27.33;;;10.48;;
64174;SDS011;50469;50.438;-119.202;2022-09-01T12:26:48;28.77;;;11.23;;
64174;SDS011;50469;50.438;-119.202;2022-09-01T12:29:20;24.05;;;11.90;;
64174;SDS011;50469;50.438;-119.202;2022-09-01T12:31:57;28.10;;;11.43;;
64174;SDS011;50469;50.438;-119.202;2022-09-01T12:37:22;21.92;;;11.38;;
64174;SDS011;50469;50.438;-119.202;2022-09-01T12:39:53;19.00;;;11.23;;
64174;SDS011;50469;50.438;-119.202;2022-09-01T12:44:52;21.42;;;12.05;;
64174;SDS011;50469;50.438;-119.202;2022-09-01T12:50:14;29.35;;;11.77;;
64174;SDS011;50469;50.438;-119.202;2022-09-01T12:53:01;23.63;;;12.00;;
64174;SDS011;50469;50.438;-119.202;2022-09-01T12:55:32;30.67;;;12.32;;
64174;SDS011;50469;50.438;-119.202;2022-09-01T12:58:23;33.38;;;12.40;;
64174;SDS011;50469;50.438;-119.202;2022-09-01T13:03:41;19.95;;;12.07;;
64174;SDS011;50469;50.438;-119.202;2022-09-01T13:06:12;25.23;;;12.55;;
64174;SDS011;50469;50.438;-119.202;2022-09-01T13:08:43;29.08;;;11.35;;
64174;SDS011;50469;50.438;-119.202;2022-09-01T13:11:13;18.85;;;11.07;;
64174;SDS011;50469;50.438;-119.202;2022-09-01T13:13:47;25.13;;;10.70;;
64174;SDS011;50469;50.438;-119.202;2022-09-01T13:16:15;28.70;;;11.38;;
64174;SDS011;50469;50.438;-119.202;2022-09-01T13:18:43;16.45;;;11.07;;
64174;SDS011;50469;50.438;-119.202;2022-09-01T13:21:32;28.85;;;11.93;;
64174;SDS011;50469;50.438;-119.202;2022-09-01T13:24:04;18.75;;;11.18;;
64174;SDS011;50469;50.438;-119.202;2022-09-01T13:26:35;30.65;;;11.73;;
64174;SDS011;50469;50.438;-119.202;2022-09-01T13:29:04;34.92;;;10.63;;
64174;SDS011;50469;50.438;-119.202;2022-09-01T13:31:32;28.08;;;12.02;;
64174;SDS011;50469;50.438;-119.202;2022-09-01T13:34:01;23.30;;;11.27;;
64174;SDS011;50469;50.438;-119.202;2022-09-01T13:36:45;19.75;;;11.38;;
64174;SDS011;50469;50.438;-119.202;2022-09-01T13:39:18;20.25;;;11.23;;
64174;SDS011;50469;50.438;-119.202;2022-09-01T13:41:47;25.10;;;11.07;;
64174;SDS011;50469;50.438;-119.202;2022-09-01T13:44:17;26.88;;;11.63;;
64174;SDS011;50469;50.438;-119.202;2022-09-01T13:46:45;25.23;;;11.10;;
64174;SDS011;50469;50.438;-119.202;2022-09-01T13:49:33;26.38;;;11.73;;
64174;SDS011;50469;50.438;-119.202;2022-09-01T13:52:21;27.30;;;12.45;;
64174;SDS011;50469;50.438;-119.202;2022-09-01T13:54:50;39.28;;;12.00;;
64174;SDS011;50469;50.438;-119.202;2022-09-01T13:57:20;29.05;;;11.13;;
64174;SDS011;50469;50.438;-119.202;2022-09-01T13:59:48;27.27;;;12.50;;
64174;SDS011;50469;50.438;-119.202;2022-09-01T14:02:17;34.88;;;12.35;;
64174;SDS011;50469;50.438;-119.202;2022-09-01T14:04:45;34.88;;;11.60;;
64174;SDS011;50469;50.438;-119.202;2022-09-01T14:07:14;31.95;;;11.43;;
64174;SDS011;50469;50.438;-119.202;2022-09-01T14:09:42;32.35;;;10.70;;
64174;SDS011;50469;50.438;-119.202;2022-09-01T14:12:11;22.67;;;11.32;;
64174;SDS011;50469;50.438;-119.202;2022-09-01T14:14:39;20.70;;;9.90;;
64174;SDS011;50469;50.438;-119.202;2022-09-01T14:17:27;28.75;;;10.25;;
64174;SDS011;50469;50.438;-119.202;2022-09-01T14:20:00;27.02;;;9.90;;
64174;SDS011;50469;50.438;-119.202;2022-09-01T14:22:28;26.45;;;10.18;;
64174;SDS011;50469;50.438;-119.202;2022-09-01T14:25:07;27.90;;;11.30;;
64174;SDS011;50469;50.438;-119.202;2022-09-01T14:27:38;38.38;;;10.95;;
64174;SDS011;50469;50.438;-119.202;2022-09-01T14:30:07;18.65;;;10.35;;
64174;SDS011;50469;50.438;-119.202;2022-09-01T14:32:37;17.50;;;11.15;;
64174;SDS011;50469;50.438;-119.202;2022-09-01T14:35:05;28.63;;;10.70;;
64174;SDS011;50469;50.438;-119.202;2022-09-01T14:37:36;28.73;;;10.95;;
64174;SDS011;50469;50.438;-119.202;2022-09-01T14:40:07;19.83;;;10.55;;
64174;SDS011;50469;50.438;-119.202;2022-09-01T14:42:43;33.95;;;11.27;;
64174;SDS011;50469;50.438;-119.202;2022-09-01T14:45:18;21.80;;;10.18;;
64174;SDS011;50469;50.438;-119.202;2022-09-01T14:47:48;21.70;;;11.23;;
64174;SDS011;50469;50.438;-119.202;2022-09-01T14:50:17;18.73;;;10.45;;
64174;SDS011;50469;50.438;-119.202;2022-09-01T14:52:50;25.50;;;10.80;;
64174;SDS011;50469;50.438;-119.202;2022-09-01T14:55:21;23.63;;;10.48;;
64174;SDS011;50469;50.438;-119.202;2022-09-01T14:57:50;25.75;;;11.35;;
64174;SDS011;50469;50.438;-119.202;2022-09-01T15:00:19;28.95;;;11.23;;
64174;SDS011;50469;50.438;-119.202;2022-09-01T15:02:52;25.63;;;11.50;;
64174;SDS011;50469;50.438;-119.202;2022-09-01T15:05:23;20.83;;;10.18;;
64174;SDS011;50469;50.438;-119.202;2022-09-01T15:07:52;24.17;;;10.18;;
64174;SDS011;50469;50.438;-119.202;2022-09-01T15:10:21;27.75;;;10.90;;
64174;SDS011;50469;50.438;-119.202;2022-09-01T15:12:55;32.75;;;11.57;;
64174;SDS011;50469;50.438;-119.202;2022-09-01T15:15:28;26.33;;;9.85;;
64174;SDS011;50469;50.438;-119.202;2022-09-01T15:17:59;30.33;;;11.15;;
64174;SDS011;50469;50.438;-119.202;2022-09-01T15:20:29;23.85;;;10.35;;
64174;SDS011;50469;50.438;-119.202;2022-09-01T15:22:57;29.70;;;9.93;;
64174;SDS011;50469;50.438;-119.202;2022-09-01T15:25:25;25.83;;;11.73;;
64174;SDS011;50469;50.438;-119.202;2022-09-01T15:27:56;35.35;;;10.50;;
64174;SDS011;50469;50.438;-119.202;2022-09-01T15:30:24;37.05;;;11.60;;
64174;SDS011;50469;50.438;-119.202;2022-09-01T15:32:52;20.08;;;10.57;;
64174;SDS011;50469;50.438;-119.202;2022-09-01T15:35:21;29.45;;;10.73;;
64174;SDS011;50469;50.438;-119.202;2022-09-01T15:37:50;25.98;;;10.60;;
64174;SDS011;50469;50.438;-119.202;2022-09-01T15:40:21;36.92;;;10.77;;
64174;SDS011;50469;50.438;-119.202;2022-09-01T15:42:50;25.38;;;9.75;;
64174;SDS011;50469;50.438;-119.202;2022-09-01T15:45:19;31.42;;;10.20;;